sensor_id;sensor_type;location;lat;lon;timestamp;pressure;altitude;pressure_sealevel;temperature
81319;BMP280;74078;48.420;14.828;2024-02-04T00:00:19;93106.78;;;3.85
81319;BMP280;74078;48.420;14.828;2024-02-04T00:02:45;93095.66;;;3.79
81319;BMP280;74078;48.420;14.828;2024-02-04T00:05:10;93098.88;;;3.80
81319;BMP280;74078;48.420;14.828;2024-02-04T00:07:35;93108.94;;;3.80
81319;BMP280;74078;48.420;14.828;2024-02-04T00:10:01;93121.50;;;3.83
81319;BMP280;74078;48.420;14.828;2024-02-04T00:12:26;93123.28;;;3.83
81319;BMP280;74078;48.420;14.828;2024-02-04T00:14:52;93131.22;;;3.78
81319;BMP280;74078;48.420;14.828;2024-02-04T00:17:17;93119.00;;;3.76
81319;BMP280;74078;48.420;14.828;2024-02-04T00:19:42;93104.97;;;3.82
81319;BMP280;74078;48.420;14.828;2024-02-04T00:22:08;93103.94;;;3.73
81319;BMP280;74078;48.420;14.828;2024-02-04T00:24:33;93113.25;;;3.76
81319;BMP280;74078;48.420;14.828;2024-02-04T00:26:58;93126.56;;;3.76
81319;BMP280;74078;48.420;14.828;2024-02-04T00:29:23;93125.09;;;3.82
81319;BMP280;74078;48.420;14.828;2024-02-04T00:31:49;93127.59;;;3.82
81319;BMP280;74078;48.420;14.828;2024-02-04T00:34:14;93130.13;;;3.82
81319;BMP280;74078;48.420;14.828;2024-02-04T00:36:39;93136.59;;;3.80
81319;BMP280;74078;48.420;14.828;2024-02-04T00:39:04;93125.47;;;3.77
81319;BMP280;74078;48.420;14.828;2024-02-04T00:41:32;93135.19;;;3.75
81319;BMP280;74078;48.420;14.828;2024-02-04T00:43:57;93130.91;;;3.69
81319;BMP280;74078;48.420;14.828;2024-02-04T00:46:22;93120.47;;;3.77
81319;BMP280;74078;48.420;14.828;2024-02-04T00:48:47;93115.03;;;3.82
81319;BMP280;74078;48.420;14.828;2024-02-04T00:51:12;93109.72;;;3.70
81319;BMP280;74078;48.420;14.828;2024-02-04T00:53:39;93115.75;;;3.79
81319;BMP280;74078;48.420;14.828;2024-02-04T00:56:04;93114.34;;;3.82
81319;BMP280;74078;48.420;14.828;2024-02-04T00:58:29;93112.19;;;3.77
81319;BMP280;74078;48.420;14.828;2024-02-04T01:00:55;93113.25;;;3.83
81319;BMP280;74078;48.420;14.828;2024-02-04T01:03:20;93122.25;;;3.80
81319;BMP280;74078;48.420;14.828;2024-02-04T01:05:45;93121.19;;;3.71
81319;BMP280;74078;48.420;14.828;2024-02-04T01:08:10;93122.59;;;3.75
81319;BMP280;74078;48.420;14.828;2024-02-04T01:10:36;93135.53;;;3.81
81319;BMP280;74078;48.420;14.828;2024-02-04T01:13:01;93139.84;;;3.80
81319;BMP280;74078;48.420;14.828;2024-02-04T01:15:26;93142.34;;;3.80
81319;BMP280;74078;48.420;14.828;2024-02-04T01:17:51;93140.22;;;3.72
81319;BMP280;74078;48.420;14.828;2024-02-04T01:20:17;93143.09;;;3.77
81319;BMP280;74078;48.420;14.828;2024-02-04T01:22:43;93136.25;;;3.81
81319;BMP280;74078;48.420;14.828;2024-02-04T01:25:08;93143.06;;;3.84
81319;BMP280;74078;48.420;14.828;2024-02-04T01:27:33;93147.06;;;3.68
81319;BMP280;74078;48.420;14.828;2024-02-04T01:29:59;93136.25;;;3.81
81319;BMP280;74078;48.420;14.828;2024-02-04T01:32:24;93131.59;;;3.76
81319;BMP280;74078;48.420;14.828;2024-02-04T01:34:49;93128.75;;;3.71
81319;BMP280;74078;48.420;14.828;2024-02-04T01:37:15;93128.00;;;3.77
81319;BMP280;74078;48.420;14.828;2024-02-04T01:39:40;93122.25;;;3.73
81319;BMP280;74078;48.420;14.828;2024-02-04T01:42:05;93120.81;;;3.76
81319;BMP280;74078;48.420;14.828;2024-02-04T01:44:30;93116.16;;;3.78
81319;BMP280;74078;48.420;14.828;2024-02-04T01:46:56;93107.16;;;3.77
81319;BMP280;74078;48.420;14.828;2024-02-04T01:49:21;93092.06;;;3.80
81319;BMP280;74078;48.420;14.828;2024-02-04T01:51:46;93097.47;;;3.72
81319;BMP280;74078;48.420;14.828;2024-02-04T01:54:11;93105.00;;;3.75
81319;BMP280;74078;48.420;14.828;2024-02-04T01:56:37;93082.03;;;3.73
81319;BMP280;74078;48.420;14.828;2024-02-04T01:59:02;93078.41;;;3.85
81319;BMP280;74078;48.420;14.828;2024-02-04T02:01:28;93092.06;;;3.80
81319;BMP280;74078;48.420;14.828;2024-02-04T02:03:53;93090.28;;;3.77
81319;BMP280;74078;48.420;14.828;2024-02-04T02:06:18;93097.78;;;3.84
81319;BMP280;74078;48.420;14.828;2024-02-04T02:08:44;93094.94;;;3.79
81319;BMP280;74078;48.420;14.828;2024-02-04T02:11:32;93092.41;;;3.82
81319;BMP280;74078;48.420;14.828;2024-02-04T02:13:57;93103.56;;;3.81
81319;BMP280;74078;48.420;14.828;2024-02-04T02:16:25;93106.44;;;3.76
81319;BMP280;74078;48.420;14.828;2024-02-04T02:18:57;93107.22;;;3.70
81319;BMP280;74078;48.420;14.828;2024-02-04T02:24:11;93098.56;;;3.74
81319;BMP280;74078;48.420;14.828;2024-02-04T02:26:37;93085.31;;;3.70
81319;BMP280;74078;48.420;14.828;2024-02-04T02:29:05;93091.41;;;3.69
81319;BMP280;74078;48.420;14.828;2024-02-04T02:31:30;93081.25;;;3.83
81319;BMP280;74078;48.420;14.828;2024-02-04T02:33:56;93087.09;;;3.70
81319;BMP280;74078;48.420;14.828;2024-02-04T02:36:21;93068.00;;;3.79
81319;BMP280;74078;48.420;14.828;2024-02-04T02:38:58;93079.84;;;3.79
81319;BMP280;74078;48.420;14.828;2024-02-04T02:41:25;93084.22;;;3.71
81319;BMP280;74078;48.420;14.828;2024-02-04T02:43:52;93075.56;;;3.72
81319;BMP280;74078;48.420;14.828;2024-02-04T02:46:19;93068.03;;;3.72
81319;BMP280;74078;48.420;14.828;2024-02-04T02:48:44;93073.00;;;3.79
81319;BMP280;74078;48.420;14.828;2024-02-04T02:51:10;93079.19;;;3.71
81319;BMP280;74078;48.420;14.828;2024-02-04T02:53:35;93080.94;;;3.78
81319;BMP280;74078;48.420;14.828;2024-02-04T02:56:00;93072.75;;;3.70
81319;BMP280;74078;48.420;14.828;2024-02-04T02:58:26;93074.81;;;3.75
81319;BMP280;74078;48.420;14.828;2024-02-04T03:00:55;93063.31;;;3.81
81319;BMP280;74078;48.420;14.828;2024-02-04T03:03:21;93074.84;;;3.72
81319;BMP280;74078;48.420;14.828;2024-02-04T03:05:48;93067.25;;;3.82
81319;BMP280;74078;48.420;14.828;2024-02-04T03:08:14;93079.84;;;3.75
81319;BMP280;74078;48.420;14.828;2024-02-04T03:10:41;93088.84;;;3.76
81319;BMP280;74078;48.420;14.828;2024-02-04T03:13:07;93106.50;;;3.69
81319;BMP280;74078;48.420;14.828;2024-02-04T03:15:32;93076.22;;;3.83
81319;BMP280;74078;48.420;14.828;2024-02-04T03:17:58;93079.13;;;3.78
81319;BMP280;74078;48.420;14.828;2024-02-04T03:20:24;93098.84;;;3.90
81319;BMP280;74078;48.420;14.828;2024-02-04T03:22:50;93081.22;;;3.90
81319;BMP280;74078;48.420;14.828;2024-02-04T03:25:17;93071.19;;;3.87
81319;BMP280;74078;48.420;14.828;2024-02-04T03:27:43;93074.81;;;3.79
81319;BMP280;74078;48.420;14.828;2024-02-04T03:30:10;93068.34;;;3.81
81319;BMP280;74078;48.420;14.828;2024-02-04T03:32:36;93067.63;;;3.81
81319;BMP280;74078;48.420;14.828;2024-02-04T03:35:03;93080.53;;;3.83
81319;BMP280;74078;48.420;14.828;2024-02-04T03:37:30;93075.50;;;3.86
81319;BMP280;74078;48.420;14.828;2024-02-04T03:39:56;93073.03;;;3.72
81319;BMP280;74078;48.420;14.828;2024-02-04T03:42:22;93073.34;;;3.88
81319;BMP280;74078;48.420;14.828;2024-02-04T03:44:49;93070.50;;;3.83
81319;BMP280;74078;48.420;14.828;2024-02-04T03:47:15;93051.81;;;3.84
81319;BMP280;74078;48.420;14.828;2024-02-04T03:49:42;93062.63;;;3.77
81319;BMP280;74078;48.420;14.828;2024-02-04T03:52:08;93069.06;;;3.82
81319;BMP280;74078;48.420;14.828;2024-02-04T03:54:34;93067.63;;;3.84
81319;BMP280;74078;48.420;14.828;2024-02-04T03:57:00;93077.31;;;3.79
81319;BMP280;74078;48.420;14.828;2024-02-04T03:59:26;93073.72;;;3.83
81319;BMP280;74078;48.420;14.828;2024-02-04T04:01:53;93078.44;;;3.78
81319;BMP280;74078;48.420;14.828;2024-02-04T04:04:20;93076.28;;;3.73
81319;BMP280;74078;48.420;14.828;2024-02-04T04:06:47;93080.19;;;3.84
81319;BMP280;74078;48.420;14.828;2024-02-04T04:09:14;93089.88;;;3.82
81319;BMP280;74078;48.420;14.828;2024-02-04T04:11:40;93085.59;;;3.76
81319;BMP280;74078;48.420;14.828;2024-02-04T04:14:07;93081.97;;;3.87
81319;BMP280;74078;48.420;14.828;2024-02-04T04:16:33;93081.94;;;3.91
81319;BMP280;74078;48.420;14.828;2024-02-04T04:18:59;93088.38;;;3.95
81319;BMP280;74078;48.420;14.828;2024-02-04T04:21:26;93084.16;;;3.85
81319;BMP280;74078;48.420;14.828;2024-02-04T04:23:55;93093.16;;;3.76
81319;BMP280;74078;48.420;14.828;2024-02-04T04:26:21;93094.91;;;3.89
81319;BMP280;74078;48.420;14.828;2024-02-04T04:28:48;93090.97;;;3.85
81319;BMP280;74078;48.420;14.828;2024-02-04T04:31:14;93092.03;;;3.87
81319;BMP280;74078;48.420;14.828;2024-02-04T04:33:41;93087.72;;;3.84
81319;BMP280;74078;48.420;14.828;2024-02-04T04:36:07;93099.25;;;3.85
81319;BMP280;74078;48.420;14.828;2024-02-04T04:38:34;93097.13;;;3.73
81319;BMP280;74078;48.420;14.828;2024-02-04T04:41:00;93096.03;;;3.74
81319;BMP280;74078;48.420;14.828;2024-02-04T04:43:26;93092.84;;;3.70
81319;BMP280;74078;48.420;14.828;2024-02-04T04:45:53;93093.16;;;3.76
81319;BMP280;74078;48.420;14.828;2024-02-04T04:48:19;93100.69;;;3.76
81319;BMP280;74078;48.420;14.828;2024-02-04T04:50:45;93100.34;;;3.74
81319;BMP280;74078;48.420;14.828;2024-02-04T04:53:12;93096.41;;;3.73
81319;BMP280;74078;48.420;14.828;2024-02-04T04:55:38;93092.44;;;3.75
81319;BMP280;74078;48.420;14.828;2024-02-04T04:58:04;93090.59;;;3.86
81319;BMP280;74078;48.420;14.828;2024-02-04T05:00:31;93084.88;;;3.86
81319;BMP280;74078;48.420;14.828;2024-02-04T05:02:57;93086.66;;;3.85
81319;BMP280;74078;48.420;14.828;2024-02-04T05:05:24;93091.31;;;3.83
81319;BMP280;74078;48.420;14.828;2024-02-04T05:07:53;93082.34;;;3.79
81319;BMP280;74078;48.420;14.828;2024-02-04T05:10:20;93072.66;;;3.84
81319;BMP280;74078;48.420;14.828;2024-02-04T05:12:46;93069.06;;;3.78
81319;BMP280;74078;48.420;14.828;2024-02-04T05:15:12;93070.88;;;3.81
81319;BMP280;74078;48.420;14.828;2024-02-04T05:17:39;93079.13;;;3.78
81319;BMP280;74078;48.420;14.828;2024-02-04T05:20:06;93076.94;;;3.87
81319;BMP280;74078;48.420;14.828;2024-02-04T05:22:33;93077.31;;;3.89
81319;BMP280;74078;48.420;14.828;2024-02-04T05:24:59;93084.13;;;3.89
81319;BMP280;74078;48.420;14.828;2024-02-04T05:27:26;93067.59;;;3.91
81319;BMP280;74078;48.420;14.828;2024-02-04T05:29:53;93069.31;;;3.94
81319;BMP280;74078;48.420;14.828;2024-02-04T05:32:19;93072.25;;;3.93
81319;BMP280;74078;48.420;14.828;2024-02-04T05:34:45;93078.31;;;3.95
81319;BMP280;74078;48.420;14.828;2024-02-04T05:37:12;93078.28;;;4.02
81319;BMP280;74078;48.420;14.828;2024-02-04T05:39:38;93076.16;;;3.97
81319;BMP280;74078;48.420;14.828;2024-02-04T05:42:05;93072.94;;;3.97
81319;BMP280;74078;48.420;14.828;2024-02-04T05:44:31;93086.91;;;4.01
81319;BMP280;74078;48.420;14.828;2024-02-04T05:46:57;93086.91;;;4.01
81319;BMP280;74078;48.420;14.828;2024-02-04T05:49:23;93093.81;;;3.90
81319;BMP280;74078;48.420;14.828;2024-02-04T05:51:50;93086.56;;;3.99
81319;BMP280;74078;48.420;14.828;2024-02-04T05:54:16;93077.97;;;3.93
81319;BMP280;74078;48.420;14.828;2024-02-04T05:56:43;93090.22;;;3.91
81319;BMP280;74078;48.420;14.828;2024-02-04T05:59:09;93085.50;;;4.00
81319;BMP280;74078;48.420;14.828;2024-02-04T06:01:36;93082.22;;;4.03
81319;BMP280;74078;48.420;14.828;2024-02-04T06:04:02;93094.81;;;4.03
81319;BMP280;74078;48.420;14.828;2024-02-04T06:06:29;93090.50;;;4.04
81319;BMP280;74078;48.420;14.828;2024-02-04T06:08:55;93086.63;;;3.92
81319;BMP280;74078;48.420;14.828;2024-02-04T06:11:21;93077.25;;;3.96
81319;BMP280;74078;48.420;14.828;2024-02-04T06:13:51;93073.28;;;3.95
81319;BMP280;74078;48.420;14.828;2024-02-04T06:16:17;93074.00;;;3.96
81319;BMP280;74078;48.420;14.828;2024-02-04T06:18:43;93083.72;;;3.97
81319;BMP280;74078;48.420;14.828;2024-02-04T06:21:10;93086.56;;;3.99
81319;BMP280;74078;48.420;14.828;2024-02-04T06:23:37;93096.28;;;3.97
81319;BMP280;74078;48.420;14.828;2024-02-04T06:26:04;93076.13;;;4.05
81319;BMP280;74078;48.420;14.828;2024-02-04T06:28:31;93085.88;;;3.95
81319;BMP280;74078;48.420;14.828;2024-02-04T06:30:57;93095.16;;;4.02
81319;BMP280;74078;48.420;14.828;2024-02-04T06:33:24;93084.78;;;3.96
81319;BMP280;74078;48.420;14.828;2024-02-04T06:35:50;93105.63;;;4.00
81319;BMP280;74078;48.420;14.828;2024-02-04T06:38:17;93102.41;;;3.96
81319;BMP280;74078;48.420;14.828;2024-02-04T06:40:43;93109.19;;;3.99
81319;BMP280;74078;48.420;14.828;2024-02-04T06:43:10;93106.34;;;3.97
81319;BMP280;74078;48.420;14.828;2024-02-04T06:45:36;93104.25;;;3.89
81319;BMP280;74078;48.420;14.828;2024-02-04T06:48:02;93100.63;;;3.93
81319;BMP280;74078;48.420;14.828;2024-02-04T06:50:29;93102.78;;;3.91
81319;BMP280;74078;48.420;14.828;2024-02-04T06:52:55;93106.69;;;3.96
81319;BMP280;74078;48.420;14.828;2024-02-04T06:55:22;93108.91;;;3.90
81319;BMP280;74078;48.420;14.828;2024-02-04T06:57:48;93112.88;;;3.84
81319;BMP280;74078;48.420;14.828;2024-02-04T07:00:14;93113.63;;;3.81
81319;BMP280;74078;48.420;14.828;2024-02-04T07:02:41;93101.75;;;3.85
81319;BMP280;74078;48.420;14.828;2024-02-04T07:05:08;93114.66;;;3.91
81319;BMP280;74078;48.420;14.828;2024-02-04T07:07:36;93121.16;;;3.81
81319;BMP280;74078;48.420;14.828;2024-02-04T07:10:02;93130.13;;;3.82
81319;BMP280;74078;48.420;14.828;2024-02-04T07:12:29;93132.28;;;3.87
81319;BMP280;74078;48.420;14.828;2024-02-04T07:14:55;93136.59;;;3.83
81319;BMP280;74078;48.420;14.828;2024-02-04T07:17:21;93122.22;;;3.87
81319;BMP280;74078;48.420;14.828;2024-02-04T07:19:48;93125.84;;;3.76
81319;BMP280;74078;48.420;14.828;2024-02-04T07:22:14;93117.91;;;3.84
81319;BMP280;74078;48.420;14.828;2024-02-04T07:24:41;93121.53;;;3.76
81319;BMP280;74078;48.420;14.828;2024-02-04T07:27:08;93115.75;;;3.86
81319;BMP280;74078;48.420;14.828;2024-02-04T07:29:34;93125.47;;;3.84
81319;BMP280;74078;48.420;14.828;2024-02-04T07:32:01;93129.44;;;3.82
81319;BMP280;74078;48.420;14.828;2024-02-04T07:34:27;93126.19;;;3.81
81319;BMP280;74078;48.420;14.828;2024-02-04T07:36:57;93121.53;;;3.76
81319;BMP280;74078;48.420;14.828;2024-02-04T07:39:23;93119.03;;;3.73
81319;BMP280;74078;48.420;14.828;2024-02-04T07:41:50;93112.19;;;3.80
81319;BMP280;74078;48.420;14.828;2024-02-04T07:44:16;93131.56;;;3.80
81319;BMP280;74078;48.420;14.828;2024-02-04T07:46:42;93136.97;;;3.78
81319;BMP280;74078;48.420;14.828;2024-02-04T07:49:08;93122.94;;;3.81
81319;BMP280;74078;48.420;14.828;2024-02-04T07:51:35;93117.19;;;3.87
81319;BMP280;74078;48.420;14.828;2024-02-04T07:54:06;93110.38;;;3.84
81319;BMP280;74078;48.420;14.828;2024-02-04T07:56:32;93126.56;;;3.73
81319;BMP280;74078;48.420;14.828;2024-02-04T07:58:58;93117.91;;;3.84
81319;BMP280;74078;48.420;14.828;2024-02-04T08:01:25;93116.41;;;3.97
81319;BMP280;74078;48.420;14.828;2024-02-04T08:03:51;93109.19;;;3.99
81319;BMP280;74078;48.420;14.828;2024-02-04T08:06:18;93118.25;;;3.86
81319;BMP280;74078;48.420;14.828;2024-02-04T08:08:44;93107.13;;;3.87
81319;BMP280;74078;48.420;14.828;2024-02-04T08:11:16;93117.19;;;3.87
81319;BMP280;74078;48.420;14.828;2024-02-04T08:13:43;93114.28;;;3.92
81319;BMP280;74078;48.420;14.828;2024-02-04T08:16:10;93126.53;;;3.83
81319;BMP280;74078;48.420;14.828;2024-02-04T08:18:37;93116.50;;;3.73
81319;BMP280;74078;48.420;14.828;2024-02-04T08:21:03;93115.06;;;3.75
81319;BMP280;74078;48.420;14.828;2024-02-04T08:23:29;93115.41;;;3.81
81319;BMP280;74078;48.420;14.828;2024-02-04T08:25:56;93119.69;;;3.91
81319;BMP280;74078;48.420;14.828;2024-02-04T08:28:23;93128.00;;;3.77
81319;BMP280;74078;48.420;14.828;2024-02-04T08:30:50;93117.22;;;3.80
81319;BMP280;74078;48.420;14.828;2024-02-04T08:33:16;93124.00;;;3.90
81319;BMP280;74078;48.420;14.828;2024-02-04T08:35:44;93110.66;;;4.00
81319;BMP280;74078;48.420;14.828;2024-02-04T08:38:11;93106.34;;;3.94
81319;BMP280;74078;48.420;14.828;2024-02-04T08:40:37;93098.13;;;3.86
81319;BMP280;74078;48.420;14.828;2024-02-04T08:43:04;93116.13;;;3.85
81319;BMP280;74078;48.420;14.828;2024-02-04T08:45:30;93119.34;;;3.89
81319;BMP280;74078;48.420;14.828;2024-02-04T08:47:56;93112.16;;;3.87
81319;BMP280;74078;48.420;14.828;2024-02-04T08:50:23;93110.72;;;3.79
81319;BMP280;74078;48.420;14.828;2024-02-04T08:52:49;93097.81;;;3.81
81319;BMP280;74078;48.420;14.828;2024-02-04T08:55:16;93083.75;;;3.87
81319;BMP280;74078;48.420;14.828;2024-02-04T08:57:42;93093.09;;;3.86
81319;BMP280;74078;48.420;14.828;2024-02-04T09:00:08;93098.88;;;3.83
81319;BMP280;74078;48.420;14.828;2024-02-04T09:02:37;93093.84;;;3.83
81319;BMP280;74078;48.420;14.828;2024-02-04T09:05:04;93091.34;;;3.76
81319;BMP280;74078;48.420;14.828;2024-02-04T09:07:30;93074.44;;;3.84
81319;BMP280;74078;48.420;14.828;2024-02-04T09:09:57;93077.31;;;3.86
81319;BMP280;74078;48.420;14.828;2024-02-04T09:12:23;93071.56;;;3.85
81319;BMP280;74078;48.420;14.828;2024-02-04T09:14:49;93076.22;;;3.83
81319;BMP280;74078;48.420;14.828;2024-02-04T09:17:16;93064.25;;;4.01
81319;BMP280;74078;48.420;14.828;2024-02-04T09:19:42;93070.44;;;3.93
81319;BMP280;74078;48.420;14.828;2024-02-04T09:22:09;93075.47;;;3.90
81319;BMP280;74078;48.420;14.828;2024-02-04T09:24:35;93078.31;;;3.95
81319;BMP280;74078;48.420;14.828;2024-02-04T09:27:02;93073.69;;;3.90
81319;BMP280;74078;48.420;14.828;2024-02-04T09:29:28;93073.28;;;3.99
81319;BMP280;74078;48.420;14.828;2024-02-04T09:31:55;93067.50;;;3.98
81319;BMP280;74078;48.420;14.828;2024-02-04T09:34:22;93048.09;;;4.02
81319;BMP280;74078;48.420;14.828;2024-02-04T09:36:48;93054.19;;;4.01
81319;BMP280;74078;48.420;14.828;2024-02-04T09:39:17;93081.19;;;3.97
81319;BMP280;74078;48.420;14.828;2024-02-04T09:41:44;93066.78;;;3.98
81319;BMP280;74078;48.420;14.828;2024-02-04T09:44:10;93097.75;;;3.91
81319;BMP280;74078;48.420;14.828;2024-02-04T09:46:38;93088.72;;;4.05
81319;BMP280;74078;48.420;14.828;2024-02-04T09:49:04;93093.41;;;3.95
81319;BMP280;74078;48.420;14.828;2024-02-04T09:51:31;93094.09;;;4.03
81319;BMP280;74078;48.420;14.828;2024-02-04T09:54:01;93074.69;;;4.03
81319;BMP280;74078;48.420;14.828;2024-02-04T09:56:29;93089.41;;;4.09
81319;BMP280;74078;48.420;14.828;2024-02-04T09:58:56;93087.59;;;4.06
81319;BMP280;74078;48.420;14.828;2024-02-04T10:01:23;93093.34;;;4.10
81319;BMP280;74078;48.420;14.828;2024-02-04T10:03:50;93096.97;;;4.05
81319;BMP280;74078;48.420;14.828;2024-02-04T10:06:16;93086.88;;;4.09
81319;BMP280;74078;48.420;14.828;2024-02-04T10:08:42;93086.56;;;3.99
81319;BMP280;74078;48.420;14.828;2024-02-04T10:11:09;93083.69;;;4.05
81319;BMP280;74078;48.420;14.828;2024-02-04T10:13:45;93085.44;;;4.08
81319;BMP280;74078;48.420;14.828;2024-02-04T10:16:12;93098.38;;;4.10
81319;BMP280;74078;48.420;14.828;2024-02-04T10:18:42;93074.28;;;4.12
81319;BMP280;74078;48.420;14.828;2024-02-04T10:21:21;93069.97;;;4.13
81319;BMP280;74078;48.420;14.828;2024-02-04T10:23:49;93065.31;;;4.11
81319;BMP280;74078;48.420;14.828;2024-02-04T10:26:16;93068.16;;;4.13
81319;BMP280;74078;48.420;14.828;2024-02-04T10:28:46;93063.13;;;4.13
81319;BMP280;74078;48.420;14.828;2024-02-04T10:31:15;93056.69;;;4.09
81319;BMP280;74078;48.420;14.828;2024-02-04T10:33:41;93070.00;;;4.09
81319;BMP280;74078;48.420;14.828;2024-02-04T10:36:08;93076.81;;;4.12
81319;BMP280;74078;48.420;14.828;2024-02-04T10:38:35;93079.28;;;4.16
81319;BMP280;74078;48.420;14.828;2024-02-04T10:41:01;93070.28;;;4.18
81319;BMP280;74078;48.420;14.828;2024-02-04T10:43:32;93048.69;;;4.17
81319;BMP280;74078;48.420;14.828;2024-02-04T10:46:07;93049.41;;;4.18
81319;BMP280;74078;48.420;14.828;2024-02-04T10:48:36;93052.28;;;4.20
81319;BMP280;74078;48.420;14.828;2024-02-04T10:51:16;93051.91;;;4.21
81319;BMP280;74078;48.420;14.828;2024-02-04T10:53:44;93041.50;;;4.19
81319;BMP280;74078;48.420;14.828;2024-02-04T10:56:26;93037.91;;;4.24
81319;BMP280;74078;48.420;14.828;2024-02-04T10:58:55;93047.91;;;4.31
81319;BMP280;74078;48.420;14.828;2024-02-04T11:01:22;93045.81;;;4.19
81319;BMP280;74078;48.420;14.828;2024-02-04T11:03:49;93050.84;;;4.22
81319;BMP280;74078;48.420;14.828;2024-02-04T11:06:16;93048.28;;;4.26
81319;BMP280;74078;48.420;14.828;2024-02-04T11:08:44;93032.47;;;4.25
81319;BMP280;74078;48.420;14.828;2024-02-04T11:11:10;93027.81;;;4.24
81319;BMP280;74078;48.420;14.828;2024-02-04T11:13:36;93035.72;;;4.26
81319;BMP280;74078;48.420;14.828;2024-02-04T11:16:05;93033.22;;;4.22
81319;BMP280;74078;48.420;14.828;2024-02-04T11:26:33;93025.59;;;4.33
81319;BMP280;74078;48.420;14.828;2024-02-04T11:29:00;93024.09;;;4.39
81319;BMP280;74078;48.420;14.828;2024-02-04T11:31:28;93019.50;;;4.30
81319;BMP280;74078;48.420;14.828;2024-02-04T11:33:54;93041.41;;;4.33
81319;BMP280;74078;48.420;14.828;2024-02-04T11:36:24;93034.97;;;4.29
81319;BMP280;74078;48.420;14.828;2024-02-04T11:38:50;93006.19;;;4.33
81319;BMP280;74078;48.420;14.828;2024-02-04T11:41:23;93010.44;;;4.40
81319;BMP280;74078;48.420;14.828;2024-02-04T11:43:53;93005.00;;;4.45
81319;BMP280;74078;48.420;14.828;2024-02-04T11:46:27;93002.53;;;4.38
81319;BMP280;74078;48.420;14.828;2024-02-04T11:48:54;93005.25;;;4.54
81319;BMP280;74078;48.420;14.828;2024-02-04T11:51:23;92995.97;;;4.51
81319;BMP280;74078;48.420;14.828;2024-02-04T11:53:54;92994.00;;;4.28
81319;BMP280;74078;48.420;14.828;2024-02-04T11:56:21;92994.31;;;4.34
81319;BMP280;74078;48.420;14.828;2024-02-04T11:58:48;92997.84;;;4.40
81319;BMP280;74078;48.420;14.828;2024-02-04T12:01:14;93001.53;;;4.32
81319;BMP280;74078;48.420;14.828;2024-02-04T12:03:41;93004.78;;;4.29
81319;BMP280;74078;48.420;14.828;2024-02-04T12:06:07;92999.03;;;4.32
81319;BMP280;74078;48.420;14.828;2024-02-04T12:08:36;92997.16;;;4.36
81319;BMP280;74078;48.420;14.828;2024-02-04T12:11:04;92992.19;;;4.29
81319;BMP280;74078;48.420;14.828;2024-02-04T12:13:30;92990.31;;;4.40
81319;BMP280;74078;48.420;14.828;2024-02-04T12:15:57;92983.78;;;4.46
81319;BMP280;74078;48.420;14.828;2024-02-04T12:18:24;92987.78;;;4.40
81319;BMP280;74078;48.420;14.828;2024-02-04T12:20:50;92987.50;;;4.31
81319;BMP280;74078;48.420;14.828;2024-02-04T12:23:17;92977.03;;;4.36
81319;BMP280;74078;48.420;14.828;2024-02-04T12:25:49;92998.28;;;4.35
81319;BMP280;74078;48.420;14.828;2024-02-04T12:28:18;92997.16;;;4.36
81319;BMP280;74078;48.420;14.828;2024-02-04T12:30:53;92971.53;;;4.48
81319;BMP280;74078;48.420;14.828;2024-02-04T12:33:24;92976.22;;;4.46
81319;BMP280;74078;48.420;14.828;2024-02-04T12:35:51;92966.53;;;4.41
81319;BMP280;74078;48.420;14.828;2024-02-04T12:38:17;92961.13;;;4.46
81319;BMP280;74078;48.420;14.828;2024-02-04T12:40:44;92951.25;;;4.62
81319;BMP280;74078;48.420;14.828;2024-02-04T12:43:12;92935.97;;;4.42
81319;BMP280;74078;48.420;14.828;2024-02-04T12:45:38;92924.00;;;4.53
81319;BMP280;74078;48.420;14.828;2024-02-04T12:48:05;92930.53;;;4.47
81319;BMP280;74078;48.420;14.828;2024-02-04T12:50:32;92901.34;;;4.53
81319;BMP280;74078;48.420;14.828;2024-02-04T12:55:30;92917.88;;;4.54
81319;BMP280;74078;48.420;14.828;2024-02-04T12:58:08;92927.88;;;4.62
81319;BMP280;74078;48.420;14.828;2024-02-04T13:00:35;92931.13;;;4.59
81319;BMP280;74078;48.420;14.828;2024-02-04T13:03:01;92932.75;;;4.42
81319;BMP280;74078;48.420;14.828;2024-02-04T13:05:26;92919.78;;;4.43
81319;BMP280;74078;48.420;14.828;2024-02-04T13:07:53;92933.50;;;4.39
81319;BMP280;74078;48.420;14.828;2024-02-04T13:10:20;92913.28;;;4.46
81319;BMP280;74078;48.420;14.828;2024-02-04T13:12:45;92914.63;;;4.54
81319;BMP280;74078;48.420;14.828;2024-02-04T13:15:10;92918.97;;;4.53
81319;BMP280;74078;48.420;14.828;2024-02-04T13:17:35;92910.38;;;4.51
81319;BMP280;74078;48.420;14.828;2024-02-04T13:20:01;92916.47;;;4.53
81319;BMP280;74078;48.420;14.828;2024-02-04T13:22:26;92906.88;;;4.38
81319;BMP280;74078;48.420;14.828;2024-02-04T13:24:51;92899.69;;;4.40
81319;BMP280;74078;48.420;14.828;2024-02-04T13:27:16;92897.09;;;4.47
81319;BMP280;74078;48.420;14.828;2024-02-04T13:29:42;92907.53;;;4.45
81319;BMP280;74078;48.420;14.828;2024-02-04T13:32:07;92900.31;;;4.51
81319;BMP280;74078;48.420;14.828;2024-02-04T13:34:33;92913.22;;;4.53
81319;BMP280;74078;48.420;14.828;2024-02-04T13:36:58;92910.66;;;4.56
81319;BMP280;74078;48.420;14.828;2024-02-04T13:39:23;92906.06;;;4.51
81319;BMP280;74078;48.420;14.828;2024-02-04T13:41:49;92902.09;;;4.50
81319;BMP280;74078;48.420;14.828;2024-02-04T13:44:14;92914.59;;;4.57
81319;BMP280;74078;48.420;14.828;2024-02-04T13:46:39;92911.00;;;4.59
81319;BMP280;74078;48.420;14.828;2024-02-04T13:49:07;92918.91;;;4.57
81319;BMP280;74078;48.420;14.828;2024-02-04T13:51:33;92908.78;;;4.64
81319;BMP280;74078;48.420;14.828;2024-02-04T13:53:58;92906.97;;;4.65
81319;BMP280;74078;48.420;14.828;2024-02-04T13:56:23;92907.38;;;4.63
81319;BMP280;74078;48.420;14.828;2024-02-04T13:58:49;92905.97;;;4.59
81319;BMP280;74078;48.420;14.828;2024-02-04T14:01:14;92927.44;;;4.70
81319;BMP280;74078;48.420;14.828;2024-02-04T14:03:40;92916.28;;;4.68
81319;BMP280;74078;48.420;14.828;2024-02-04T14:06:05;92911.66;;;4.66
81319;BMP280;74078;48.420;14.828;2024-02-04T14:08:31;92894.25;;;4.75
81319;BMP280;74078;48.420;14.828;2024-02-04T14:10:56;92890.75;;;4.69
81319;BMP280;74078;48.420;14.828;2024-02-04T14:13:21;92882.38;;;4.76
81319;BMP280;74078;48.420;14.828;2024-02-04T14:15:46;92877.06;;;4.70
81319;BMP280;74078;48.420;14.828;2024-02-04T14:18:12;92888.88;;;4.73